createdAt,value
2023-05-24T00:00:11.322Z,5.8
2023-05-24T00:02:59.261Z,5.8
2023-05-24T00:05:47.290Z,5.7
2023-05-24T00:08:35.145Z,5.7
2023-05-24T00:11:23.011Z,5.6
2023-05-24T00:14:10.736Z,5.6
2023-05-24T00:16:58.617Z,5.6
2023-05-24T00:19:46.667Z,5.5
2023-05-24T00:22:34.354Z,5.5
2023-05-24T00:25:22.097Z,5.5
2023-05-24T00:28:10.014Z,5.5
2023-05-24T00:30:57.803Z,5.4
2023-05-24T00:33:45.632Z,5.3
2023-05-24T00:36:33.366Z,5.3
2023-05-24T00:39:21.095Z,5.3
2023-05-24T00:42:08.806Z,5.3
2023-05-24T00:44:56.560Z,5.2
2023-05-24T00:47:44.229Z,5.2
2023-05-24T00:50:32.073Z,5.1
2023-05-24T00:53:19.803Z,5.1
2023-05-24T00:56:07.436Z,5
2023-05-24T00:58:55.242Z,5
2023-05-24T01:01:43.180Z,5
2023-05-24T01:04:31.261Z,5
2023-05-24T01:07:19.094Z,5
2023-05-24T01:10:06.707Z,4.9
2023-05-24T01:12:54.444Z,4.9
2023-05-24T01:15:42.191Z,5
2023-05-24T01:18:30.346Z,5
2023-05-24T01:21:18.301Z,5
2023-05-24T01:24:06.289Z,4.9
2023-05-24T01:26:54.023Z,4.9
2023-05-24T01:29:41.758Z,4.8
2023-05-24T01:32:29.560Z,4.7
2023-05-24T01:35:17.729Z,4.7
2023-05-24T01:38:05.466Z,4.6
2023-05-24T01:40:53.299Z,4.5
2023-05-24T01:43:40.985Z,4.5
2023-05-24T01:46:28.998Z,4.4
2023-05-24T01:49:16.786Z,4.3
2023-05-24T01:52:04.793Z,4.2
2023-05-24T01:54:52.825Z,4.1
2023-05-24T01:57:40.756Z,4
2023-05-24T02:00:28.582Z,3.9
2023-05-24T02:03:16.827Z,3.9
2023-05-24T02:06:04.815Z,3.9
2023-05-24T02:08:52.816Z,3.7
2023-05-24T02:11:40.527Z,3.8
2023-05-24T02:14:28.379Z,3.9
2023-05-24T02:17:16.312Z,3.9
2023-05-24T02:20:04.229Z,4
2023-05-24T02:22:52.045Z,4
2023-05-24T02:25:40.326Z,4
2023-05-24T02:28:28.116Z,4
2023-05-24T02:31:16.088Z,3.9
2023-05-24T02:34:03.964Z,3.9
2023-05-24T02:36:52.075Z,3.9
2023-05-24T02:39:39.984Z,3.9
2023-05-24T02:42:27.849Z,3.9
2023-05-24T02:45:15.736Z,3.9
2023-05-24T02:48:04.005Z,3.8
2023-05-24T02:50:52.053Z,3.8
2023-05-24T02:53:39.911Z,3.8
2023-05-24T02:56:27.809Z,3.8
2023-05-24T02:59:16.339Z,3.8
2023-05-24T03:02:04.337Z,3.8
2023-05-24T03:04:52.378Z,3.8
2023-05-24T03:07:40.197Z,3.8
2023-05-24T03:10:28.288Z,3.7
2023-05-24T03:13:16.200Z,3.8
2023-05-24T03:16:04.292Z,3.8
2023-05-24T03:18:52.401Z,3.7
2023-05-24T03:21:40.492Z,3.6
2023-05-24T03:24:28.377Z,3.5
2023-05-24T03:27:16.269Z,3.5
2023-05-24T03:30:04.182Z,3.3
2023-05-24T03:32:52.235Z,3.3
2023-05-24T03:35:40.397Z,3.3
2023-05-24T03:38:28.452Z,3.2
2023-05-24T03:41:16.233Z,3.1
2023-05-24T03:44:04.113Z,3.1
2023-05-24T03:46:52.165Z,3.1
2023-05-24T03:49:40.280Z,3.1
2023-05-24T03:52:27.962Z,3.1
2023-05-24T03:55:15.889Z,3.2
2023-05-24T03:58:03.649Z,3.3
2023-05-24T04:00:51.540Z,3.5
2023-05-24T04:03:39.629Z,3.5
2023-05-24T04:06:27.633Z,3.6
2023-05-24T04:09:16.132Z,3.7
2023-05-24T04:12:04.025Z,3.8
2023-05-24T04:14:51.900Z,3.9
2023-05-24T04:17:40.110Z,3.9
2023-05-24T04:20:28.530Z,3.9
2023-05-24T04:23:16.579Z,4
2023-05-24T04:26:04.622Z,4
2023-05-24T04:28:52.557Z,4.1
2023-05-24T04:31:40.713Z,4.3
2023-05-24T04:34:28.592Z,4.5
2023-05-24T04:37:16.573Z,4.7
2023-05-24T04:40:04.362Z,5
2023-05-24T04:42:52.349Z,5.1
2023-05-24T04:45:40.233Z,5.3
2023-05-24T04:48:28.279Z,5.5
2023-05-24T04:51:16.024Z,5.7
2023-05-24T04:54:03.940Z,5.9
2023-05-24T04:56:51.906Z,6
2023-05-24T04:59:39.815Z,6.2
2023-05-24T05:02:27.817Z,6.3
2023-05-24T05:05:15.994Z,6.4
2023-05-24T05:08:03.801Z,6.5
2023-05-24T05:10:52.410Z,6.6
2023-05-24T05:13:40.255Z,6.7
2023-05-24T05:16:28.303Z,6.9
2023-05-24T05:19:16.293Z,6.9
2023-05-24T05:22:04.140Z,7
2023-05-24T05:24:51.907Z,7.2
2023-05-24T05:27:39.925Z,7.4
2023-05-24T05:30:27.777Z,7.6
2023-05-24T05:33:15.925Z,7.8
2023-05-24T05:36:04.063Z,8
2023-05-24T05:38:52.051Z,8.2
2023-05-24T05:41:39.884Z,8.5
2023-05-24T05:44:27.782Z,8.8
2023-05-24T05:47:15.710Z,9
2023-05-24T05:50:03.596Z,9.2
2023-05-24T05:52:51.434Z,9.4
2023-05-24T05:55:39.282Z,9.7
2023-05-24T05:58:27.206Z,10
2023-05-24T06:01:15.215Z,10.3
2023-05-24T06:04:03.448Z,10.7
2023-05-24T06:06:51.701Z,11.3
2023-05-24T06:09:39.612Z,11.4
2023-05-24T06:12:27.515Z,11.1
2023-05-24T06:15:15.279Z,10.9
2023-05-24T06:18:03.402Z,10.8
2023-05-24T06:20:51.512Z,10.8
2023-05-24T06:23:39.393Z,10.8
2023-05-24T06:26:27.328Z,10.8
2023-05-24T06:29:15.272Z,10.9
2023-05-24T06:32:03.180Z,11.3
2023-05-24T06:34:51.014Z,12.1
2023-05-24T06:37:38.926Z,13.1
2023-05-24T06:40:26.874Z,13.8
2023-05-24T06:43:14.759Z,14.5
2023-05-24T06:46:02.558Z,15.3
2023-05-24T06:48:50.676Z,15.8
2023-05-24T06:51:38.994Z,15.6
2023-05-24T06:54:26.955Z,16
2023-05-24T06:57:14.844Z,15.6
2023-05-24T07:00:02.739Z,14.8
2023-05-24T07:02:50.695Z,14.3
2023-05-24T07:05:38.579Z,13.8
2023-05-24T07:08:41.207Z,13.3
2023-05-24T07:11:29.302Z,12.9
2023-05-24T07:14:17.414Z,12.7
2023-05-24T07:17:05.380Z,12.7
2023-05-24T07:19:53.497Z,12.6
2023-05-24T07:22:41.334Z,12.6
2023-05-24T07:25:29.132Z,12.8
2023-05-24T07:28:16.992Z,13
2023-05-24T07:31:04.829Z,13.2
2023-05-24T07:33:52.642Z,13.3
2023-05-24T07:36:40.428Z,13.4
2023-05-24T07:39:28.120Z,13.6
2023-05-24T07:42:16.043Z,13.9
2023-05-24T07:45:03.765Z,14.3
2023-05-24T07:47:52.355Z,14.8
2023-05-24T07:50:44.329Z,15.4
2023-05-24T07:53:32.361Z,15.8
2023-05-24T07:56:20.017Z,16.3
2023-05-24T07:59:07.939Z,17
2023-05-24T08:01:55.925Z,17.2
2023-05-24T08:04:43.698Z,17.8
2023-05-24T08:07:31.432Z,18.9
2023-05-24T08:10:19.164Z,19.9
2023-05-24T08:13:06.861Z,19.7
2023-05-24T08:15:54.951Z,18.9
2023-05-24T08:18:43.086Z,18
2023-05-24T08:21:31.010Z,17.1
2023-05-24T08:24:18.899Z,16.5
2023-05-24T08:27:06.680Z,16
2023-05-24T08:29:56.243Z,15.5
2023-05-24T08:32:45.205Z,15.2
2023-05-24T08:35:47.662Z,15
2023-05-24T08:38:35.540Z,15.2
2023-05-24T08:41:23.361Z,15.4
2023-05-24T08:44:11.002Z,15.8
2023-05-24T08:46:58.878Z,16.1
2023-05-24T08:49:46.745Z,16.9
2023-05-24T08:52:34.449Z,18.1
2023-05-24T08:55:22.232Z,19.5
2023-05-24T08:58:10.215Z,20.3
2023-05-24T09:00:58.086Z,20.5
2023-05-24T09:03:46.065Z,20.5
2023-05-24T09:06:34.372Z,21.2
2023-05-24T09:09:22.219Z,22
2023-05-24T09:12:10.008Z,22.3
2023-05-24T09:14:58.605Z,22.7
2023-05-24T09:17:46.273Z,22.5
2023-05-24T09:20:34.080Z,22.6
2023-05-24T09:23:22.023Z,22.9
2023-05-24T09:26:09.637Z,22.4
2023-05-24T09:28:57.531Z,21.4
2023-05-24T09:31:45.431Z,20.5
2023-05-24T09:34:33.272Z,19.6
2023-05-24T09:37:21.991Z,18.9
2023-05-24T09:40:16.445Z,18.3
2023-05-24T09:43:04.269Z,17.8
2023-05-24T09:45:52.163Z,17.7
2023-05-24T09:48:40.141Z,18.3
2023-05-24T09:51:27.972Z,18.9
2023-05-24T09:54:15.849Z,19.1
2023-05-24T09:57:04.857Z,19
2023-05-24T09:59:53.331Z,18.7
2023-05-24T10:02:52.208Z,18.8
2023-05-24T10:05:41.912Z,19.9
2023-05-24T10:08:29.623Z,21.1
2023-05-24T10:11:17.195Z,21.7
2023-05-24T10:14:05.112Z,22.1
2023-05-24T10:16:53.101Z,22.5
2023-05-24T10:19:41.019Z,23.1
2023-05-24T10:22:28.747Z,23.6
2023-05-24T10:25:16.664Z,23.7
2023-05-24T10:28:04.512Z,23
2023-05-24T10:30:52.393Z,22.1
2023-05-24T10:33:40.692Z,21.4
2023-05-24T10:36:28.628Z,21.1
2023-05-24T10:39:16.306Z,21.5
2023-05-24T10:42:04.842Z,21.8
2023-05-24T10:44:56.950Z,21.8
2023-05-24T10:47:44.710Z,21.5
2023-05-24T10:50:32.606Z,20.6
2023-05-24T10:53:20.340Z,19.9
2023-05-24T10:56:08.021Z,19.4
2023-05-24T10:58:55.919Z,20
2023-05-24T11:01:43.922Z,20.9
2023-05-24T11:04:32.069Z,21.5
2023-05-24T11:07:19.986Z,21.5
2023-05-24T11:10:08.068Z,20.8
2023-05-24T11:12:55.902Z,20.1
2023-05-24T11:15:43.738Z,19.4
2023-05-24T11:18:31.721Z,18.8
2023-05-24T11:21:19.917Z,18.4
2023-05-24T11:24:07.930Z,18.1
2023-05-24T11:26:56.000Z,18
2023-05-24T11:29:43.991Z,18
2023-05-24T11:32:32.014Z,17.8
2023-05-24T11:35:20.064Z,17.7
2023-05-24T11:38:13.743Z,17.5
2023-05-24T11:41:01.579Z,17.1
2023-05-24T11:43:49.600Z,16.8
2023-05-24T11:46:37.802Z,16.5
2023-05-24T11:49:25.684Z,16.3
2023-05-24T11:52:13.666Z,16.2
2023-05-24T11:55:01.769Z,16.2
2023-05-24T11:57:49.855Z,16.2
2023-05-24T12:00:37.796Z,16.4
2023-05-24T12:03:26.213Z,16.7
2023-05-24T12:06:14.326Z,16.9
2023-05-24T12:09:02.163Z,17
2023-05-24T12:11:50.174Z,17
2023-05-24T12:14:38.393Z,17
2023-05-24T12:17:26.404Z,17
2023-05-24T12:20:14.518Z,17.2
2023-05-24T12:23:02.511Z,17.2
2023-05-24T12:25:50.243Z,17.5
2023-05-24T12:28:38.096Z,17.8
2023-05-24T12:31:26.290Z,18.2
2023-05-24T12:34:14.512Z,18.8
2023-05-24T12:37:02.480Z,19.2
2023-05-24T12:39:52.383Z,19.5
2023-05-24T12:42:42.926Z,19.9
2023-05-24T12:45:31.270Z,20.1
2023-05-24T12:48:19.429Z,20.6
2023-05-24T12:51:07.347Z,21.3
2023-05-24T12:53:55.347Z,21.7
2023-05-24T12:56:43.380Z,21.4
2023-05-24T12:59:31.171Z,21
2023-05-24T13:02:19.333Z,20.7
2023-05-24T13:05:07.207Z,20.8
2023-05-24T13:07:55.125Z,21.4
2023-05-24T13:10:43.327Z,21.5
2023-05-24T13:13:31.814Z,21.3
2023-05-24T13:16:19.883Z,21
2023-05-24T13:19:08.230Z,20.7
2023-05-24T13:21:56.161Z,20.5
2023-05-24T13:24:44.790Z,20.5
2023-05-24T13:27:32.778Z,20.2
2023-05-24T13:30:29.509Z,20
2023-05-24T13:33:17.394Z,20
2023-05-24T13:36:05.425Z,20.3
2023-05-24T13:38:59.454Z,20.5
2023-05-24T13:42:03.919Z,20.5
2023-05-24T13:44:51.784Z,20
2023-05-24T13:47:41.774Z,19.6
2023-05-24T13:50:29.961Z,19.3
2023-05-24T13:53:17.731Z,19
2023-05-24T13:56:05.472Z,18.9
2023-05-24T13:58:53.268Z,18.8
2023-05-24T14:01:41.433Z,18.6
2023-05-24T14:04:29.441Z,18.3
2023-05-24T14:07:17.244Z,18
2023-05-24T14:10:05.134Z,17.6
2023-05-24T14:13:03.856Z,17.3
2023-05-24T14:16:34.778Z,17.2
2023-05-24T14:19:22.929Z,17
2023-05-24T14:22:10.620Z,17
2023-05-24T14:24:58.341Z,17.2
2023-05-24T14:27:46.236Z,17.4
2023-05-24T14:30:34.011Z,17.8
2023-05-24T14:33:21.792Z,18.1
2023-05-24T14:36:09.897Z,18.3
2023-05-24T14:38:57.570Z,18.4
2023-05-24T14:41:45.196Z,18.4
2023-05-24T14:44:33.001Z,18.5
2023-05-24T14:47:23.582Z,18.6
2023-05-24T14:50:11.361Z,18.8
2023-05-24T14:52:59.295Z,18.8
2023-05-24T14:55:47.371Z,18.9
2023-05-24T14:58:35.422Z,19
2023-05-24T15:01:23.307Z,19
2023-05-24T15:04:11.302Z,18.9
2023-05-24T15:06:59.033Z,18.6
2023-05-24T15:09:46.763Z,18.3
2023-05-24T15:12:34.594Z,18
2023-05-24T15:15:22.389Z,17.7
2023-05-24T15:18:10.437Z,17.4
2023-05-24T15:20:58.560Z,17.2
2023-05-24T15:23:49.481Z,17.1
2023-05-24T15:26:37.201Z,17
2023-05-24T15:29:24.982Z,16.9
2023-05-24T15:32:12.845Z,16.9
2023-05-24T15:35:00.690Z,17
2023-05-24T15:37:48.697Z,17
2023-05-24T15:40:36.490Z,16.9
2023-05-24T15:43:24.210Z,16.8
2023-05-24T15:46:12.245Z,16.8
2023-05-24T15:49:00.137Z,16.8
2023-05-24T15:52:26.487Z,16.9
2023-05-24T15:55:14.454Z,17
2023-05-24T15:58:02.288Z,17
2023-05-24T16:00:50.017Z,17
2023-05-24T16:03:38.230Z,17.1
2023-05-24T16:06:26.251Z,17.2
2023-05-24T16:09:14.283Z,17.4
2023-05-24T16:12:02.135Z,17.6
2023-05-24T16:14:49.955Z,18.1
2023-05-24T16:17:37.841Z,18.3
2023-05-24T16:20:26.021Z,18.2
2023-05-24T16:23:13.918Z,18.3
2023-05-24T16:26:01.682Z,18.5
2023-05-24T16:28:49.432Z,18.5
2023-05-24T16:31:37.195Z,18.5
2023-05-24T16:34:24.969Z,18.4
2023-05-24T16:37:12.630Z,18.2
2023-05-24T16:40:00.420Z,18.1
2023-05-24T16:42:48.275Z,18.2
2023-05-24T16:45:35.988Z,18.3
2023-05-24T16:48:23.936Z,18.8
2023-05-24T16:51:12.464Z,19.4
2023-05-24T16:54:00.212Z,19.4
2023-05-24T16:56:47.951Z,19.4
2023-05-24T16:59:35.751Z,19.2
2023-05-24T17:02:23.633Z,18.8
2023-05-24T17:05:11.647Z,18.4
2023-05-24T17:07:59.423Z,18.1
2023-05-24T17:10:47.106Z,17.8
2023-05-24T17:13:34.839Z,17.5
2023-05-24T17:16:22.920Z,17.2
2023-05-24T17:19:10.972Z,17
2023-05-24T17:21:58.863Z,16.8
2023-05-24T17:24:46.800Z,16.8
2023-05-24T17:27:34.590Z,16.7
2023-05-24T17:30:22.469Z,16.5
2023-05-24T17:33:10.496Z,16.2
2023-05-24T17:35:58.356Z,16
2023-05-24T17:38:46.298Z,15.8
2023-05-24T17:41:34.076Z,15.8
2023-05-24T17:44:21.842Z,15.6
2023-05-24T17:47:10.121Z,15.6
2023-05-24T17:49:58.027Z,15.6
2023-05-24T17:52:45.803Z,15.6
2023-05-24T17:55:33.590Z,15.6
2023-05-24T17:58:21.471Z,15.5
2023-05-24T18:01:09.369Z,15.5
2023-05-24T18:03:57.183Z,15.4
2023-05-24T18:06:44.931Z,15.4
2023-05-24T18:09:32.745Z,15.3
2023-05-24T18:12:20.688Z,15.3
2023-05-24T18:15:08.471Z,15.2
2023-05-24T18:17:56.569Z,15.2
2023-05-24T18:20:44.417Z,15.2
2023-05-24T18:23:32.458Z,15.2
2023-05-24T18:26:31.429Z,15.2
2023-05-24T18:29:19.054Z,15.2
2023-05-24T18:32:07.171Z,15.3
2023-05-24T18:34:55.338Z,15.4
2023-05-24T18:37:43.066Z,15.3
2023-05-24T18:40:30.827Z,15.3
2023-05-24T18:43:18.687Z,15.2
2023-05-24T18:46:06.504Z,15.2
2023-05-24T18:48:54.464Z,15.2
2023-05-24T18:51:42.192Z,15.1
2023-05-24T18:54:29.873Z,15
2023-05-24T18:57:17.727Z,15
2023-05-24T19:00:05.652Z,15
2023-05-24T19:02:53.668Z,14.9
2023-05-24T19:05:43.487Z,14.8
2023-05-24T19:08:32.202Z,14.8
2023-05-24T19:11:19.947Z,14.7
2023-05-24T19:14:07.883Z,14.6
2023-05-24T19:16:55.907Z,14.5
2023-05-24T19:19:44.118Z,14.5
2023-05-24T19:22:31.750Z,14.4
2023-05-24T19:25:19.588Z,14.3
2023-05-24T19:28:23.038Z,14.2
2023-05-24T19:31:11.107Z,14.1
2023-05-24T19:34:00.832Z,14
2023-05-24T19:36:49.258Z,13.9
2023-05-24T19:39:37.187Z,13.9
2023-05-24T19:42:25.040Z,13.8
2023-05-24T19:45:12.852Z,13.7
2023-05-24T19:48:00.976Z,13.7
2023-05-24T19:50:49.133Z,13.6
2023-05-24T19:53:37.175Z,13.5
2023-05-24T19:56:25.161Z,13.5
2023-05-24T19:59:13.025Z,13.3
2023-05-24T20:02:00.907Z,13.3
2023-05-24T20:04:52.002Z,13.1
2023-05-24T20:07:39.924Z,13
2023-05-24T20:10:27.930Z,12.8
2023-05-24T20:13:15.757Z,12.7
2023-05-24T20:16:03.805Z,12.5
2023-05-24T20:18:51.675Z,12.5
2023-05-24T20:21:39.596Z,12.5
2023-05-24T20:24:27.404Z,12.5
2023-05-24T20:27:15.255Z,12.5
2023-05-24T20:30:03.037Z,12.5
2023-05-24T20:32:51.300Z,12.5
2023-05-24T20:35:39.146Z,12.6
2023-05-24T20:38:27.067Z,12.7
2023-05-24T20:41:14.812Z,12.7
2023-05-24T20:44:02.701Z,12.7
2023-05-24T20:46:50.483Z,12.7
2023-05-24T20:49:38.471Z,12.7
2023-05-24T20:52:26.199Z,12.7
2023-05-24T20:55:13.917Z,12.5
2023-05-24T20:58:01.722Z,12.5
2023-05-24T21:00:49.512Z,12.4
2023-05-24T21:03:37.648Z,12.3
2023-05-24T21:06:25.476Z,12.1
2023-05-24T21:09:13.178Z,12
2023-05-24T21:12:01.020Z,11.9
2023-05-24T21:14:48.875Z,11.7
2023-05-24T21:17:36.868Z,11.6
2023-05-24T21:20:24.892Z,11.5
2023-05-24T21:23:12.733Z,11.3
2023-05-24T21:26:00.415Z,11.2
2023-05-24T21:28:48.224Z,11.1
2023-05-24T21:31:36.107Z,11
2023-05-24T21:34:24.176Z,10.9
2023-05-24T21:37:11.956Z,10.9
2023-05-24T21:39:59.845Z,10.8
2023-05-24T21:42:47.639Z,10.8
2023-05-24T21:45:35.493Z,10.8
2023-05-24T21:48:23.292Z,10.8
2023-05-24T21:51:11.028Z,10.8
2023-05-24T21:53:58.707Z,10.8
2023-05-24T21:56:46.487Z,10.9
2023-05-24T21:59:34.229Z,11
2023-05-24T22:02:22.182Z,11
2023-05-24T22:05:10.090Z,11.1
2023-05-24T22:07:57.795Z,11.1
2023-05-24T22:10:45.564Z,11
2023-05-24T22:13:33.288Z,10.9
2023-05-24T22:16:21.143Z,10.8
2023-05-24T22:19:09.134Z,10.7
2023-05-24T22:21:56.842Z,10.5
2023-05-24T22:24:44.522Z,10.3
2023-05-24T22:27:32.213Z,10.2
2023-05-24T22:30:20.023Z,10
2023-05-24T22:33:07.808Z,9.7
2023-05-24T22:35:55.810Z,9.6
2023-05-24T22:38:43.676Z,9.6
2023-05-24T22:41:31.473Z,9.5
2023-05-24T22:44:19.583Z,9.5
2023-05-24T22:47:07.401Z,9.4
2023-05-24T22:49:55.139Z,9.4
2023-05-24T22:52:42.939Z,9.4
2023-05-24T22:55:30.751Z,9.4
2023-05-24T22:58:18.694Z,9.4
2023-05-24T23:01:06.516Z,9.4
2023-05-24T23:03:59.945Z,9.4
2023-05-24T23:07:07.332Z,9.4
2023-05-24T23:09:55.335Z,9.4
2023-05-24T23:12:43.001Z,9.3
2023-05-24T23:15:30.834Z,9.2
2023-05-24T23:18:18.611Z,9.2
2023-05-24T23:21:06.554Z,9.2
2023-05-24T23:23:54.333Z,9.2
2023-05-24T23:26:42.194Z,9
2023-05-24T23:29:30.203Z,9
2023-05-24T23:32:18.091Z,8.9
2023-05-24T23:35:06.185Z,8.8
2023-05-24T23:37:54.067Z,8.8
2023-05-24T23:40:41.702Z,8.6
2023-05-24T23:43:29.495Z,8.5
2023-05-24T23:46:17.456Z,8.3
2023-05-24T23:49:05.307Z,8.1
2023-05-24T23:51:52.957Z,8
2023-05-24T23:54:40.835Z,7.8
2023-05-24T23:57:28.533Z,7.7
